LTBQ METAR and TAF | Updated Today

LTBQ METAR

Cengiz Topel Airport

Observation time: 17 min. ago

LTBQ 291950Z 31002KT CAVOK 14/14 Q1012 NOSIG

Need help? Read our tutorial on how to read METARs or read the parsed version below.

Cengiz Topel Airport (LTBQ) METAR

  • Weather conditions on Thu, 29 Sep 2022 19:50:00 +0000 (17 min. ago):
  • Present conditions: Dry
  • Clouds: Clear skies
  • Visibility: Greater than 10 km
  • Wind: 310 degrees at 2 knots
  • Temperature: 14 celsius
  • Dew point: 14 celsius
  • Pressure: 1012 millibars
  • Remarks: None


Useful to know...

  • Codes: LTBQ/KCO
  • Airport elevation: 182ft
  • Municipality:
  • Country: Turkey
  • Continent: Asia

LTBQ TAF

Cengiz Topel Airport

TAF LTBQ 291640Z 2918/3003 VRB02KT CAVOK
Observation time: 3:27 hr. ago
Need help? Read our tutorial on how to read TAFs or read the parsed version below.

Parsed version of TAF for Cengiz Topel Airport (LTBQ)

  • From 29 September at 18:00 UTC, to day 30 of the month at 03:00 UTC
  • Visibility: Greater than 10 km
  • Wind: Variable at 2